sensor_id;sensor_type;location;lat;lon;timestamp;temperature;humidity
4518;DHT22;2271;49.464;11.070;2022-09-29T00:00:41;9.80;99.90
4518;DHT22;2271;49.464;11.070;2022-09-29T00:03:06;9.80;99.90
4518;DHT22;2271;49.464;11.070;2022-09-29T00:05:32;9.70;99.90
4518;DHT22;2271;49.464;11.070;2022-09-29T00:07:58;9.80;99.90
4518;DHT22;2271;49.464;11.070;2022-09-29T00:10:24;9.70;99.90
4518;DHT22;2271;49.464;11.070;2022-09-29T00:12:50;9.70;99.90
4518;DHT22;2271;49.464;11.070;2022-09-29T00:15:15;9.80;99.90
4518;DHT22;2271;49.464;11.070;2022-09-29T00:17:41;9.80;99.90
4518;DHT22;2271;49.464;11.070;2022-09-29T00:20:07;9.90;99.90
4518;DHT22;2271;49.464;11.070;2022-09-29T00:22:33;9.90;99.90
4518;DHT22;2271;49.464;11.070;2022-09-29T00:24:59;9.90;99.90
4518;DHT22;2271;49.464;11.070;2022-09-29T00:27:24;9.90;99.90
4518;DHT22;2271;49.464;11.070;2022-09-29T00:29:50;9.80;99.90
4518;DHT22;2271;49.464;11.070;2022-09-29T00:32:16;9.90;99.90
4518;DHT22;2271;49.464;11.070;2022-09-29T00:34:42;9.80;99.90
4518;DHT22;2271;49.464;11.070;2022-09-29T00:37:07;9.80;99.90
4518;DHT22;2271;49.464;11.070;2022-09-29T00:39:33;9.80;99.90
4518;DHT22;2271;49.464;11.070;2022-09-29T00:41:59;9.80;99.90
4518;DHT22;2271;49.464;11.070;2022-09-29T00:47:29;9.80;99.90
4518;DHT22;2271;49.464;11.070;2022-09-29T00:50:21;9.70;99.90
4518;DHT22;2271;49.464;11.070;2022-09-29T00:52:52;9.70;99.90
4518;DHT22;2271;49.464;11.070;2022-09-29T00:55:35;9.60;99.90
4518;DHT22;2271;49.464;11.070;2022-09-29T00:58:10;9.60;99.90
4518;DHT22;2271;49.464;11.070;2022-09-29T01:00:38;9.50;99.90
4518;DHT22;2271;49.464;11.070;2022-09-29T01:03:07;9.50;99.90
4518;DHT22;2271;49.464;11.070;2022-09-29T01:05:38;9.50;99.90
4518;DHT22;2271;49.464;11.070;2022-09-29T01:08:23;9.50;99.90
4518;DHT22;2271;49.464;11.070;2022-09-29T01:10:51;9.50;99.90
4518;DHT22;2271;49.464;11.070;2022-09-29T01:13:18;9.50;99.90
4518;DHT22;2271;49.464;11.070;2022-09-29T01:15:44;9.40;99.90
4518;DHT22;2271;49.464;11.070;2022-09-29T01:18:10;9.50;99.90
4518;DHT22;2271;49.464;11.070;2022-09-29T01:20:46;9.50;99.90
4518;DHT22;2271;49.464;11.070;2022-09-29T01:23:32;9.40;99.90
4518;DHT22;2271;49.464;11.070;2022-09-29T01:38:17;9.30;99.90
4518;DHT22;2271;49.464;11.070;2022-09-29T01:43:33;9.30;99.90
4518;DHT22;2271;49.464;11.070;2022-09-29T01:46:23;9.30;99.90
4518;DHT22;2271;49.464;11.070;2022-09-29T01:48:52;9.30;99.90
4518;DHT22;2271;49.464;11.070;2022-09-29T01:51:23;9.30;99.90
4518;DHT22;2271;49.464;11.070;2022-09-29T01:53:52;9.30;99.90
4518;DHT22;2271;49.464;11.070;2022-09-29T01:56:42;9.40;99.90
4518;DHT22;2271;49.464;11.070;2022-09-29T01:59:17;9.50;99.90
4518;DHT22;2271;49.464;11.070;2022-09-29T02:01:46;9.50;99.90
4518;DHT22;2271;49.464;11.070;2022-09-29T02:04:15;9.40;99.90
4518;DHT22;2271;49.464;11.070;2022-09-29T02:06:47;9.40;99.90
4518;DHT22;2271;49.464;11.070;2022-09-29T02:09:19;9.50;99.90
4518;DHT22;2271;49.464;11.070;2022-09-29T02:11:49;9.50;99.90
4518;DHT22;2271;49.464;11.070;2022-09-29T02:14:28;9.60;99.90
4518;DHT22;2271;49.464;11.070;2022-09-29T02:17:02;9.60;99.90
4518;DHT22;2271;49.464;11.070;2022-09-29T02:19:33;9.70;99.90
4518;DHT22;2271;49.464;11.070;2022-09-29T02:22:01;9.80;99.90
4518;DHT22;2271;49.464;11.070;2022-09-29T02:24:27;9.70;99.90
4518;DHT22;2271;49.464;11.070;2022-09-29T02:26:53;9.70;99.90
4518;DHT22;2271;49.464;11.070;2022-09-29T02:29:18;9.70;99.90
4518;DHT22;2271;49.464;11.070;2022-09-29T02:31:46;9.70;99.90
4518;DHT22;2271;49.464;11.070;2022-09-29T02:34:17;9.60;99.90
4518;DHT22;2271;49.464;11.070;2022-09-29T02:42:33;9.70;99.90
4518;DHT22;2271;49.464;11.070;2022-09-29T02:56:23;9.60;99.90
4518;DHT22;2271;49.464;11.070;2022-09-29T02:59:18;9.60;99.90
4518;DHT22;2271;49.464;11.070;2022-09-29T03:01:54;9.70;99.90
4518;DHT22;2271;49.464;11.070;2022-09-29T03:04:24;9.70;99.90
4518;DHT22;2271;49.464;11.070;2022-09-29T03:06:51;9.70;99.90
4518;DHT22;2271;49.464;11.070;2022-09-29T03:09:17;9.70;99.90
4518;DHT22;2271;49.464;11.070;2022-09-29T03:11:43;9.70;99.90
4518;DHT22;2271;49.464;11.070;2022-09-29T03:14:09;9.60;99.90
4518;DHT22;2271;49.464;11.070;2022-09-29T03:16:35;9.60;99.90
4518;DHT22;2271;49.464;11.070;2022-09-29T03:19:02;9.50;99.90
4518;DHT22;2271;49.464;11.070;2022-09-29T03:21:30;9.50;99.90
4518;DHT22;2271;49.464;11.070;2022-09-29T03:23:55;9.50;99.90
4518;DHT22;2271;49.464;11.070;2022-09-29T03:26:22;9.50;99.90
4518;DHT22;2271;49.464;11.070;2022-09-29T03:28:49;9.40;99.90
4518;DHT22;2271;49.464;11.070;2022-09-29T03:31:14;9.40;99.90
4518;DHT22;2271;49.464;11.070;2022-09-29T03:33:40;9.30;99.90
4518;DHT22;2271;49.464;11.070;2022-09-29T03:36:07;9.30;99.90
4518;DHT22;2271;49.464;11.070;2022-09-29T03:38:36;9.40;99.90
4518;DHT22;2271;49.464;11.070;2022-09-29T03:41:03;9.50;99.90
4518;DHT22;2271;49.464;11.070;2022-09-29T03:43:28;9.40;99.90
4518;DHT22;2271;49.464;11.070;2022-09-29T03:45:54;9.40;99.90
4518;DHT22;2271;49.464;11.070;2022-09-29T03:48:21;9.40;99.90
4518;DHT22;2271;49.464;11.070;2022-09-29T03:50:49;9.40;99.90
4518;DHT22;2271;49.464;11.070;2022-09-29T03:53:15;9.40;99.90
4518;DHT22;2271;49.464;11.070;2022-09-29T03:55:48;9.40;99.90
4518;DHT22;2271;49.464;11.070;2022-09-29T03:58:15;9.40;99.90
4518;DHT22;2271;49.464;11.070;2022-09-29T04:00:41;9.30;99.90
4518;DHT22;2271;49.464;11.070;2022-09-29T04:03:10;9.30;99.90
4518;DHT22;2271;49.464;11.070;2022-09-29T04:05:36;9.30;99.90
4518;DHT22;2271;49.464;11.070;2022-09-29T04:08:06;9.30;99.90
4518;DHT22;2271;49.464;11.070;2022-09-29T04:10:36;9.30;99.90
4518;DHT22;2271;49.464;11.070;2022-09-29T04:13:02;9.30;99.90
4518;DHT22;2271;49.464;11.070;2022-09-29T04:15:28;9.30;99.90
4518;DHT22;2271;49.464;11.070;2022-09-29T04:17:54;9.20;99.90
4518;DHT22;2271;49.464;11.070;2022-09-29T04:20:20;9.30;99.90
4518;DHT22;2271;49.464;11.070;2022-09-29T04:22:45;9.30;99.90
4518;DHT22;2271;49.464;11.070;2022-09-29T04:25:11;9.20;99.90
4518;DHT22;2271;49.464;11.070;2022-09-29T04:27:36;9.20;99.90
4518;DHT22;2271;49.464;11.070;2022-09-29T04:30:03;9.20;99.90
4518;DHT22;2271;49.464;11.070;2022-09-29T04:32:29;9.20;99.90
4518;DHT22;2271;49.464;11.070;2022-09-29T04:34:54;9.10;99.90
4518;DHT22;2271;49.464;11.070;2022-09-29T04:37:20;9.10;99.90
4518;DHT22;2271;49.464;11.070;2022-09-29T04:39:46;9.10;99.90
4518;DHT22;2271;49.464;11.070;2022-09-29T04:42:12;9.10;99.90
4518;DHT22;2271;49.464;11.070;2022-09-29T04:44:37;9.10;99.90
4518;DHT22;2271;49.464;11.070;2022-09-29T04:47:03;9.00;99.90
4518;DHT22;2271;49.464;11.070;2022-09-29T04:49:29;9.00;99.90
4518;DHT22;2271;49.464;11.070;2022-09-29T04:51:55;9.00;99.90
4518;DHT22;2271;49.464;11.070;2022-09-29T04:54:21;8.90;99.90
4518;DHT22;2271;49.464;11.070;2022-09-29T04:56:49;9.00;99.90
4518;DHT22;2271;49.464;11.070;2022-09-29T04:59:15;9.00;99.90
4518;DHT22;2271;49.464;11.070;2022-09-29T05:01:42;9.00;99.90
4518;DHT22;2271;49.464;11.070;2022-09-29T05:04:08;8.80;99.90
4518;DHT22;2271;49.464;11.070;2022-09-29T05:06:35;8.80;99.90
4518;DHT22;2271;49.464;11.070;2022-09-29T05:09:04;8.80;99.90
4518;DHT22;2271;49.464;11.070;2022-09-29T05:11:30;8.70;99.90
4518;DHT22;2271;49.464;11.070;2022-09-29T05:13:55;8.70;99.90
4518;DHT22;2271;49.464;11.070;2022-09-29T05:16:21;8.70;99.90
4518;DHT22;2271;49.464;11.070;2022-09-29T05:18:47;8.70;99.90
4518;DHT22;2271;49.464;11.070;2022-09-29T05:21:14;8.70;99.90
4518;DHT22;2271;49.464;11.070;2022-09-29T05:23:39;8.60;99.90
4518;DHT22;2271;49.464;11.070;2022-09-29T05:26:07;8.50;99.90
4518;DHT22;2271;49.464;11.070;2022-09-29T05:28:37;8.40;99.90
4518;DHT22;2271;49.464;11.070;2022-09-29T05:31:05;8.40;99.90
4518;DHT22;2271;49.464;11.070;2022-09-29T05:33:32;8.30;99.90
4518;DHT22;2271;49.464;11.070;2022-09-29T05:35:58;8.30;99.90
4518;DHT22;2271;49.464;11.070;2022-09-29T05:38:24;8.40;99.90
4518;DHT22;2271;49.464;11.070;2022-09-29T05:40:50;8.50;99.90
4518;DHT22;2271;49.464;11.070;2022-09-29T05:43:17;8.50;99.90
4518;DHT22;2271;49.464;11.070;2022-09-29T05:45:43;8.60;99.90
4518;DHT22;2271;49.464;11.070;2022-09-29T05:48:08;8.60;99.90
4518;DHT22;2271;49.464;11.070;2022-09-29T05:50:34;8.60;99.90
4518;DHT22;2271;49.464;11.070;2022-09-29T05:53:06;8.60;99.90
4518;DHT22;2271;49.464;11.070;2022-09-29T05:55:34;8.60;99.90
4518;DHT22;2271;49.464;11.070;2022-09-29T05:58:00;8.70;99.90
4518;DHT22;2271;49.464;11.070;2022-09-29T06:00:25;8.60;99.90
4518;DHT22;2271;49.464;11.070;2022-09-29T06:02:51;8.60;99.90
4518;DHT22;2271;49.464;11.070;2022-09-29T06:05:16;8.50;99.90
4518;DHT22;2271;49.464;11.070;2022-09-29T06:07:42;8.40;99.90
4518;DHT22;2271;49.464;11.070;2022-09-29T06:10:08;8.40;99.90
4518;DHT22;2271;49.464;11.070;2022-09-29T06:12:35;8.40;99.90
4518;DHT22;2271;49.464;11.070;2022-09-29T06:15:02;8.30;99.90
4518;DHT22;2271;49.464;11.070;2022-09-29T06:17:27;8.30;99.90
4518;DHT22;2271;49.464;11.070;2022-09-29T06:19:53;8.30;99.90
4518;DHT22;2271;49.464;11.070;2022-09-29T06:22:19;8.30;99.90
4518;DHT22;2271;49.464;11.070;2022-09-29T06:24:44;8.20;99.90
4518;DHT22;2271;49.464;11.070;2022-09-29T06:27:10;8.10;99.90
4518;DHT22;2271;49.464;11.070;2022-09-29T06:29:35;8.10;99.90
4518;DHT22;2271;49.464;11.070;2022-09-29T06:32:02;8.10;99.90
4518;DHT22;2271;49.464;11.070;2022-09-29T06:34:28;8.20;99.90
4518;DHT22;2271;49.464;11.070;2022-09-29T06:36:53;8.30;99.90
4518;DHT22;2271;49.464;11.070;2022-09-29T06:39:37;8.30;99.90
4518;DHT22;2271;49.464;11.070;2022-09-29T06:42:03;8.30;99.90
4518;DHT22;2271;49.464;11.070;2022-09-29T06:44:29;8.30;99.90
4518;DHT22;2271;49.464;11.070;2022-09-29T06:46:57;8.40;99.90
4518;DHT22;2271;49.464;11.070;2022-09-29T06:49:23;8.50;99.90
4518;DHT22;2271;49.464;11.070;2022-09-29T06:51:49;8.50;99.90
4518;DHT22;2271;49.464;11.070;2022-09-29T06:54:17;8.60;99.90
4518;DHT22;2271;49.464;11.070;2022-09-29T06:56:46;8.60;99.90
4518;DHT22;2271;49.464;11.070;2022-09-29T06:59:12;8.50;99.90
4518;DHT22;2271;49.464;11.070;2022-09-29T07:01:38;8.50;99.90
4518;DHT22;2271;49.464;11.070;2022-09-29T07:04:04;8.60;99.90
4518;DHT22;2271;49.464;11.070;2022-09-29T07:06:30;8.70;99.90
4518;DHT22;2271;49.464;11.070;2022-09-29T07:08:56;8.70;99.90
4518;DHT22;2271;49.464;11.070;2022-09-29T07:11:23;8.70;99.90
4518;DHT22;2271;49.464;11.070;2022-09-29T07:13:49;8.70;99.90
4518;DHT22;2271;49.464;11.070;2022-09-29T07:16:16;8.80;99.90
4518;DHT22;2271;49.464;11.070;2022-09-29T07:18:42;9.00;99.90
4518;DHT22;2271;49.464;11.070;2022-09-29T07:21:10;9.20;99.90
4518;DHT22;2271;49.464;11.070;2022-09-29T07:23:37;9.20;99.90
4518;DHT22;2271;49.464;11.070;2022-09-29T07:26:04;9.30;99.90
4518;DHT22;2271;49.464;11.070;2022-09-29T07:28:30;9.60;99.90
4518;DHT22;2271;49.464;11.070;2022-09-29T07:31:01;10.10;99.90
4518;DHT22;2271;49.464;11.070;2022-09-29T07:33:27;10.20;99.90
4518;DHT22;2271;49.464;11.070;2022-09-29T07:35:53;10.00;99.90
4518;DHT22;2271;49.464;11.070;2022-09-29T07:38:19;9.90;99.90
4518;DHT22;2271;49.464;11.070;2022-09-29T07:40:45;9.80;99.90
4518;DHT22;2271;49.464;11.070;2022-09-29T07:43:10;9.70;99.90
4518;DHT22;2271;49.464;11.070;2022-09-29T07:45:36;9.50;99.90
4518;DHT22;2271;49.464;11.070;2022-09-29T07:48:02;9.50;99.90
4518;DHT22;2271;49.464;11.070;2022-09-29T07:50:28;9.60;99.90
4518;DHT22;2271;49.464;11.070;2022-09-29T07:52:53;9.50;99.90
4518;DHT22;2271;49.464;11.070;2022-09-29T07:55:19;9.50;99.90
4518;DHT22;2271;49.464;11.070;2022-09-29T07:57:49;9.70;99.90
4518;DHT22;2271;49.464;11.070;2022-09-29T08:00:15;9.80;99.90
4518;DHT22;2271;49.464;11.070;2022-09-29T08:02:42;9.80;99.90
4518;DHT22;2271;49.464;11.070;2022-09-29T08:05:08;10.00;99.90
4518;DHT22;2271;49.464;11.070;2022-09-29T08:07:33;10.20;99.90
4518;DHT22;2271;49.464;11.070;2022-09-29T08:09:59;10.30;99.90
4518;DHT22;2271;49.464;11.070;2022-09-29T08:12:25;10.90;99.90
4518;DHT22;2271;49.464;11.070;2022-09-29T08:14:51;11.50;99.90
4518;DHT22;2271;49.464;11.070;2022-09-29T08:17:17;12.40;99.90
4518;DHT22;2271;49.464;11.070;2022-09-29T08:19:42;14.50;99.90
4518;DHT22;2271;49.464;11.070;2022-09-29T08:22:08;16.60;99.90
4518;DHT22;2271;49.464;11.070;2022-09-29T08:24:34;16.10;99.90
4518;DHT22;2271;49.464;11.070;2022-09-29T08:27:02;15.90;99.90
4518;DHT22;2271;49.464;11.070;2022-09-29T08:29:29;15.70;99.90
4518;DHT22;2271;49.464;11.070;2022-09-29T08:31:55;15.30;99.90
4518;DHT22;2271;49.464;11.070;2022-09-29T08:34:21;15.20;99.90
4518;DHT22;2271;49.464;11.070;2022-09-29T08:36:47;15.20;99.90
4518;DHT22;2271;49.464;11.070;2022-09-29T08:39:13;15.10;99.90
4518;DHT22;2271;49.464;11.070;2022-09-29T08:46:57;14.40;99.90
4518;DHT22;2271;49.464;11.070;2022-09-29T08:49:36;14.10;99.90
4518;DHT22;2271;49.464;11.070;2022-09-29T08:52:33;13.70;99.90
4518;DHT22;2271;49.464;11.070;2022-09-29T08:55:20;13.50;99.90
4518;DHT22;2271;49.464;11.070;2022-09-29T08:57:50;13.60;99.90
4518;DHT22;2271;49.464;11.070;2022-09-29T09:00:17;13.60;99.90
4518;DHT22;2271;49.464;11.070;2022-09-29T09:05:59;13.50;99.90
4518;DHT22;2271;49.464;11.070;2022-09-29T09:11:44;13.50;99.90
4518;DHT22;2271;49.464;11.070;2022-09-29T09:17:08;13.70;99.90
4518;DHT22;2271;49.464;11.070;2022-09-29T09:22:24;14.10;99.90
4518;DHT22;2271;49.464;11.070;2022-09-29T09:24:57;14.10;99.90
4518;DHT22;2271;49.464;11.070;2022-09-29T09:27:32;14.00;99.90
4518;DHT22;2271;49.464;11.070;2022-09-29T09:30:22;13.80;99.90
4518;DHT22;2271;49.464;11.070;2022-09-29T09:32:58;13.50;99.90
4518;DHT22;2271;49.464;11.070;2022-09-29T09:38:25;13.30;99.90
4518;DHT22;2271;49.464;11.070;2022-09-29T09:40:55;13.20;99.90
4518;DHT22;2271;49.464;11.070;2022-09-29T09:43:38;13.20;99.90
4518;DHT22;2271;49.464;11.070;2022-09-29T09:54:32;13.00;99.90
4518;DHT22;2271;49.464;11.070;2022-09-29T10:02:29;12.90;99.90
4518;DHT22;2271;49.464;11.070;2022-09-29T10:04:56;12.80;99.90
4518;DHT22;2271;49.464;11.070;2022-09-29T10:07:24;12.80;99.90
4518;DHT22;2271;49.464;11.070;2022-09-29T10:09:50;12.90;99.90
4518;DHT22;2271;49.464;11.070;2022-09-29T10:12:19;12.90;99.90
4518;DHT22;2271;49.464;11.070;2022-09-29T10:15:03;12.90;99.90
4518;DHT22;2271;49.464;11.070;2022-09-29T10:17:36;12.90;99.90
4518;DHT22;2271;49.464;11.070;2022-09-29T10:20:05;13.00;99.90
4518;DHT22;2271;49.464;11.070;2022-09-29T10:22:32;13.00;99.90
4518;DHT22;2271;49.464;11.070;2022-09-29T10:25:17;13.00;99.90
4518;DHT22;2271;49.464;11.070;2022-09-29T10:27:46;13.10;99.90
4518;DHT22;2271;49.464;11.070;2022-09-29T10:30:23;13.20;99.90
4518;DHT22;2271;49.464;11.070;2022-09-29T10:32:56;13.20;99.90
4518;DHT22;2271;49.464;11.070;2022-09-29T10:35:26;13.20;99.90
4518;DHT22;2271;49.464;11.070;2022-09-29T10:38:05;13.20;99.90
4518;DHT22;2271;49.464;11.070;2022-09-29T10:40:31;13.20;99.90
4518;DHT22;2271;49.464;11.070;2022-09-29T10:42:57;13.30;99.90
4518;DHT22;2271;49.464;11.070;2022-09-29T10:45:28;13.30;99.90
4518;DHT22;2271;49.464;11.070;2022-09-29T10:50:31;13.20;99.90
4518;DHT22;2271;49.464;11.070;2022-09-29T10:53:01;13.20;99.90
4518;DHT22;2271;49.464;11.070;2022-09-29T10:55:32;13.20;99.90
4518;DHT22;2271;49.464;11.070;2022-09-29T10:58:03;13.20;99.90
4518;DHT22;2271;49.464;11.070;2022-09-29T11:00:35;13.40;99.90
4518;DHT22;2271;49.464;11.070;2022-09-29T11:03:13;13.40;99.90
4518;DHT22;2271;49.464;11.070;2022-09-29T11:06:11;13.50;99.90
4518;DHT22;2271;49.464;11.070;2022-09-29T11:08:57;13.50;99.90
4518;DHT22;2271;49.464;11.070;2022-09-29T11:11:31;13.70;99.90
4518;DHT22;2271;49.464;11.070;2022-09-29T11:13:58;13.70;99.90
4518;DHT22;2271;49.464;11.070;2022-09-29T11:16:32;13.80;99.90
4518;DHT22;2271;49.464;11.070;2022-09-29T11:19:18;13.90;99.90
4518;DHT22;2271;49.464;11.070;2022-09-29T11:30:09;14.00;99.90
4518;DHT22;2271;49.464;11.070;2022-09-29T11:33:08;14.00;99.90
4518;DHT22;2271;49.464;11.070;2022-09-29T11:38:46;14.00;99.90
4518;DHT22;2271;49.464;11.070;2022-09-29T11:41:46;14.00;99.90
4518;DHT22;2271;49.464;11.070;2022-09-29T11:57:50;13.50;99.90
4518;DHT22;2271;49.464;11.070;2022-09-29T12:00:19;13.50;99.90
4518;DHT22;2271;49.464;11.070;2022-09-29T12:03:18;13.50;99.90
4518;DHT22;2271;49.464;11.070;2022-09-29T12:06:34;13.50;99.90
4518;DHT22;2271;49.464;11.070;2022-09-29T12:09:07;13.50;99.90
4518;DHT22;2271;49.464;11.070;2022-09-29T12:11:59;13.50;99.90
4518;DHT22;2271;49.464;11.070;2022-09-29T12:17:27;13.50;99.90
4518;DHT22;2271;49.464;11.070;2022-09-29T12:22:45;13.50;99.90
4518;DHT22;2271;49.464;11.070;2022-09-29T12:25:17;13.60;99.90
4518;DHT22;2271;49.464;11.070;2022-09-29T12:27:45;13.60;99.90
4518;DHT22;2271;49.464;11.070;2022-09-29T12:30:27;13.60;99.90
4518;DHT22;2271;49.464;11.070;2022-09-29T12:33:21;13.60;99.90
4518;DHT22;2271;49.464;11.070;2022-09-29T12:41:39;13.50;99.90
4518;DHT22;2271;49.464;11.070;2022-09-29T12:44:45;13.50;99.90
4518;DHT22;2271;49.464;11.070;2022-09-29T12:47:21;13.50;99.90
4518;DHT22;2271;49.464;11.070;2022-09-29T12:50:01;13.40;99.90
4518;DHT22;2271;49.464;11.070;2022-09-29T12:53:08;13.40;99.90
4518;DHT22;2271;49.464;11.070;2022-09-29T12:55:56;13.40;99.90
4518;DHT22;2271;49.464;11.070;2022-09-29T13:09:35;13.30;99.90
4518;DHT22;2271;49.464;11.070;2022-09-29T13:28:42;13.10;99.90
4518;DHT22;2271;49.464;11.070;2022-09-29T13:31:21;13.10;99.90
4518;DHT22;2271;49.464;11.070;2022-09-29T13:34:00;13.00;99.90
4518;DHT22;2271;49.464;11.070;2022-09-29T13:36:38;12.90;99.90
4518;DHT22;2271;49.464;11.070;2022-09-29T13:39:07;12.90;99.90
4518;DHT22;2271;49.464;11.070;2022-09-29T13:41:42;12.90;99.90
4518;DHT22;2271;49.464;11.070;2022-09-29T13:46:43;12.90;99.90
4518;DHT22;2271;49.464;11.070;2022-09-29T13:59:39;12.60;99.90
4518;DHT22;2271;49.464;11.070;2022-09-29T14:04:58;12.50;99.90
4518;DHT22;2271;49.464;11.070;2022-09-29T14:07:43;12.50;99.90
4518;DHT22;2271;49.464;11.070;2022-09-29T14:15:27;12.50;99.90
4518;DHT22;2271;49.464;11.070;2022-09-29T14:18:02;12.50;99.90
4518;DHT22;2271;49.464;11.070;2022-09-29T14:20:32;12.50;99.90
4518;DHT22;2271;49.464;11.070;2022-09-29T14:23:06;12.40;99.90
4518;DHT22;2271;49.464;11.070;2022-09-29T14:25:52;12.30;99.90
4518;DHT22;2271;49.464;11.070;2022-09-29T14:28:22;12.30;99.90
4518;DHT22;2271;49.464;11.070;2022-09-29T14:30:51;12.20;99.90
4518;DHT22;2271;49.464;11.070;2022-09-29T14:33:26;12.20;99.90
4518;DHT22;2271;49.464;11.070;2022-09-29T14:38:38;12.10;99.90
4518;DHT22;2271;49.464;11.070;2022-09-29T14:43:42;11.90;99.90
4518;DHT22;2271;49.464;11.070;2022-09-29T15:03:17;11.80;99.90
4518;DHT22;2271;49.464;11.070;2022-09-29T15:06:03;11.80;99.90
4518;DHT22;2271;49.464;11.070;2022-09-29T15:08:30;11.80;99.90
4518;DHT22;2271;49.464;11.070;2022-09-29T15:10:56;11.80;99.90
4518;DHT22;2271;49.464;11.070;2022-09-29T15:15:49;11.80;99.90
4518;DHT22;2271;49.464;11.070;2022-09-29T15:21:14;11.90;99.90
4518;DHT22;2271;49.464;11.070;2022-09-29T15:24:05;11.80;99.90
4518;DHT22;2271;49.464;11.070;2022-09-29T15:26:40;11.70;99.90
4518;DHT22;2271;49.464;11.070;2022-09-29T15:29:07;11.80;99.90
4518;DHT22;2271;49.464;11.070;2022-09-29T15:31:34;11.80;99.90
4518;DHT22;2271;49.464;11.070;2022-09-29T15:34:00;11.80;99.90
4518;DHT22;2271;49.464;11.070;2022-09-29T15:36:37;11.90;99.90
4518;DHT22;2271;49.464;11.070;2022-09-29T15:39:08;11.80;99.90
4518;DHT22;2271;49.464;11.070;2022-09-29T15:41:37;11.90;99.90
4518;DHT22;2271;49.464;11.070;2022-09-29T15:44:16;11.90;99.90
4518;DHT22;2271;49.464;11.070;2022-09-29T15:46:55;11.80;99.90
4518;DHT22;2271;49.464;11.070;2022-09-29T15:49:26;11.80;99.90
4518;DHT22;2271;49.464;11.070;2022-09-29T15:52:05;11.80;99.90
4518;DHT22;2271;49.464;11.070;2022-09-29T15:54:37;11.80;99.90
4518;DHT22;2271;49.464;11.070;2022-09-29T15:57:05;11.70;99.90
4518;DHT22;2271;49.464;11.070;2022-09-29T16:05:41;11.70;99.90
4518;DHT22;2271;49.464;11.070;2022-09-29T16:08:27;11.50;99.90
4518;DHT22;2271;49.464;11.070;2022-09-29T16:11:01;11.50;99.90
4518;DHT22;2271;49.464;11.070;2022-09-29T16:13:31;11.50;99.90
4518;DHT22;2271;49.464;11.070;2022-09-29T16:16:08;11.40;99.90
4518;DHT22;2271;49.464;11.070;2022-09-29T16:21:08;11.40;99.90
4518;DHT22;2271;49.464;11.070;2022-09-29T16:23:40;11.30;99.90
4518;DHT22;2271;49.464;11.070;2022-09-29T16:28:34;11.30;99.90
4518;DHT22;2271;49.464;11.070;2022-09-29T16:31:04;11.30;99.90
4518;DHT22;2271;49.464;11.070;2022-09-29T16:33:33;11.20;99.90
4518;DHT22;2271;49.464;11.070;2022-09-29T16:36:13;11.30;99.90
4518;DHT22;2271;49.464;11.070;2022-09-29T16:38:45;11.30;99.90
4518;DHT22;2271;49.464;11.070;2022-09-29T16:41:32;11.30;99.90
4518;DHT22;2271;49.464;11.070;2022-09-29T16:46:44;11.20;99.90
4518;DHT22;2271;49.464;11.070;2022-09-29T16:49:32;11.20;99.90
4518;DHT22;2271;49.464;11.070;2022-09-29T16:52:20;11.20;99.90
4518;DHT22;2271;49.464;11.070;2022-09-29T16:54:53;11.20;99.90
4518;DHT22;2271;49.464;11.070;2022-09-29T16:57:25;11.20;99.90
4518;DHT22;2271;49.464;11.070;2022-09-29T16:59:54;11.20;99.90
4518;DHT22;2271;49.464;11.070;2022-09-29T17:02:20;11.20;99.90
4518;DHT22;2271;49.464;11.070;2022-09-29T17:04:47;11.20;99.90
4518;DHT22;2271;49.464;11.070;2022-09-29T17:07:15;11.20;99.90
4518;DHT22;2271;49.464;11.070;2022-09-29T17:09:46;11.20;99.90
4518;DHT22;2271;49.464;11.070;2022-09-29T17:12:13;11.20;99.90
4518;DHT22;2271;49.464;11.070;2022-09-29T17:14:39;11.20;99.90
4518;DHT22;2271;49.464;11.070;2022-09-29T17:17:05;11.20;99.90
4518;DHT22;2271;49.464;11.070;2022-09-29T17:19:30;11.20;99.90
4518;DHT22;2271;49.464;11.070;2022-09-29T17:21:57;11.20;99.90
4518;DHT22;2271;49.464;11.070;2022-09-29T17:24:24;11.20;99.90
4518;DHT22;2271;49.464;11.070;2022-09-29T17:26:49;11.20;99.90
4518;DHT22;2271;49.464;11.070;2022-09-29T17:29:33;11.20;99.90
4518;DHT22;2271;49.464;11.070;2022-09-29T17:32:00;11.20;99.90
4518;DHT22;2271;49.464;11.070;2022-09-29T17:34:27;11.20;99.90
4518;DHT22;2271;49.464;11.070;2022-09-29T17:36:58;11.30;99.90
4518;DHT22;2271;49.464;11.070;2022-09-29T17:39:24;11.30;99.90
4518;DHT22;2271;49.464;11.070;2022-09-29T17:41:50;11.30;99.90
4518;DHT22;2271;49.464;11.070;2022-09-29T17:44:16;11.30;99.90
4518;DHT22;2271;49.464;11.070;2022-09-29T17:46:41;11.30;99.90
4518;DHT22;2271;49.464;11.070;2022-09-29T17:49:10;11.30;99.90
4518;DHT22;2271;49.464;11.070;2022-09-29T17:51:36;11.20;99.90
4518;DHT22;2271;49.464;11.070;2022-09-29T17:54:02;11.20;99.90
4518;DHT22;2271;49.464;11.070;2022-09-29T17:56:29;11.20;99.90
4518;DHT22;2271;49.464;11.070;2022-09-29T17:59:02;11.20;99.90
4518;DHT22;2271;49.464;11.070;2022-09-29T18:01:30;11.20;99.90
4518;DHT22;2271;49.464;11.070;2022-09-29T18:04:02;11.10;99.90
4518;DHT22;2271;49.464;11.070;2022-09-29T18:06:28;11.20;99.90
4518;DHT22;2271;49.464;11.070;2022-09-29T18:08:56;11.20;99.90
4518;DHT22;2271;49.464;11.070;2022-09-29T18:11:24;11.20;99.90
4518;DHT22;2271;49.464;11.070;2022-09-29T18:13:50;11.10;99.90
4518;DHT22;2271;49.464;11.070;2022-09-29T18:16:20;11.20;99.90
4518;DHT22;2271;49.464;11.070;2022-09-29T18:18:46;11.10;99.90
4518;DHT22;2271;49.464;11.070;2022-09-29T18:21:12;11.20;99.90
4518;DHT22;2271;49.464;11.070;2022-09-29T18:23:39;11.20;99.90
4518;DHT22;2271;49.464;11.070;2022-09-29T18:26:06;11.10;99.90
4518;DHT22;2271;49.464;11.070;2022-09-29T18:28:32;11.10;99.90
4518;DHT22;2271;49.464;11.070;2022-09-29T18:31:21;11.00;99.90
4518;DHT22;2271;49.464;11.070;2022-09-29T18:33:47;11.00;99.90
4518;DHT22;2271;49.464;11.070;2022-09-29T18:36:13;11.00;99.90
4518;DHT22;2271;49.464;11.070;2022-09-29T18:38:39;10.90;99.90
4518;DHT22;2271;49.464;11.070;2022-09-29T18:41:05;10.90;99.90
4518;DHT22;2271;49.464;11.070;2022-09-29T18:43:31;10.90;99.90
4518;DHT22;2271;49.464;11.070;2022-09-29T18:45:57;10.90;99.90
4518;DHT22;2271;49.464;11.070;2022-09-29T18:48:23;10.90;99.90
4518;DHT22;2271;49.464;11.070;2022-09-29T18:50:50;10.90;99.90
4518;DHT22;2271;49.464;11.070;2022-09-29T18:53:18;10.90;99.90
4518;DHT22;2271;49.464;11.070;2022-09-29T18:55:45;10.90;99.90
4518;DHT22;2271;49.464;11.070;2022-09-29T18:58:15;10.90;99.90
4518;DHT22;2271;49.464;11.070;2022-09-29T19:00:46;10.90;99.90
4518;DHT22;2271;49.464;11.070;2022-09-29T19:03:18;10.90;99.90
4518;DHT22;2271;49.464;11.070;2022-09-29T19:05:44;10.90;99.90
4518;DHT22;2271;49.464;11.070;2022-09-29T19:08:12;10.80;99.90
4518;DHT22;2271;49.464;11.070;2022-09-29T19:10:38;10.80;99.90
4518;DHT22;2271;49.464;11.070;2022-09-29T19:13:08;10.80;99.90
4518;DHT22;2271;49.464;11.070;2022-09-29T19:15:38;10.80;99.90
4518;DHT22;2271;49.464;11.070;2022-09-29T19:18:05;10.90;99.90
4518;DHT22;2271;49.464;11.070;2022-09-29T19:20:32;10.90;99.90
4518;DHT22;2271;49.464;11.070;2022-09-29T19:22:59;10.80;99.90
4518;DHT22;2271;49.464;11.070;2022-09-29T19:25:34;10.80;99.90
4518;DHT22;2271;49.464;11.070;2022-09-29T19:28:01;10.80;99.90
4518;DHT22;2271;49.464;11.070;2022-09-29T19:30:31;10.70;99.90